sensor_id;sensor_type;location;lat;lon;timestamp;pressure;altitude;pressure_sealevel;temperature;humidity
41898;BME280;27576;53.366;-1.498;2023-06-14T00:02:16;100614.13;;;18.69;47.85
41898;BME280;27576;53.366;-1.498;2023-06-14T00:04:41;100586.47;;;18.49;48.68
41898;BME280;27576;53.366;-1.498;2023-06-14T00:07:08;100615.22;;;18.55;48.53
41898;BME280;27576;53.366;-1.498;2023-06-14T00:09:34;100597.91;;;18.45;49.11
41898;BME280;27576;53.366;-1.498;2023-06-14T00:12:00;100621.47;;;18.47;49.29
41898;BME280;27576;53.366;-1.498;2023-06-14T00:14:25;100604.25;;;18.32;48.77
41898;BME280;27576;53.366;-1.498;2023-06-14T00:16:50;100582.59;;;18.18;49.20
41898;BME280;27576;53.366;-1.498;2023-06-14T00:19:17;100615.56;;;18.34;50.32
41898;BME280;27576;53.366;-1.498;2023-06-14T00:21:43;100611.34;;;18.25;49.75
41898;BME280;27576;53.366;-1.498;2023-06-14T00:24:08;100621.81;;;18.25;49.20
41898;BME280;27576;53.366;-1.498;2023-06-14T00:26:34;100602.72;;;18.17;49.05
41898;BME280;27576;53.366;-1.498;2023-06-14T00:28:59;100615.78;;;18.19;50.48
41898;BME280;27576;53.366;-1.498;2023-06-14T00:31:25;100614.13;;;18.14;49.05
41898;BME280;27576;53.366;-1.498;2023-06-14T00:33:50;100612.44;;;18.10;50.35
41898;BME280;27576;53.366;-1.498;2023-06-14T00:36:16;100602.97;;;18.00;50.78
41898;BME280;27576;53.366;-1.498;2023-06-14T00:38:41;100602.16;;;17.97;50.49
41898;BME280;27576;53.366;-1.498;2023-06-14T00:41:06;100575.28;;;17.79;51.63
41898;BME280;27576;53.366;-1.498;2023-06-14T00:43:32;100607.41;;;17.95;51.36
41898;BME280;27576;53.366;-1.498;2023-06-14T00:45:59;100610.03;;;17.95;50.48
41898;BME280;27576;53.366;-1.498;2023-06-14T00:48:25;100607.41;;;17.95;51.89
41898;BME280;27576;53.366;-1.498;2023-06-14T00:50:51;100598.78;;;17.87;52.23
41898;BME280;27576;53.366;-1.498;2023-06-14T00:53:18;100604.03;;;17.87;51.47
41898;BME280;27576;53.366;-1.498;2023-06-14T00:55:46;100582.50;;;17.62;52.39
41898;BME280;27576;53.366;-1.498;2023-06-14T00:58:11;100599.06;;;17.65;52.21
41898;BME280;27576;53.366;-1.498;2023-06-14T01:00:36;100602.47;;;17.71;53.35
41898;BME280;27576;53.366;-1.498;2023-06-14T01:03:02;100608.69;;;17.65;53.60
41898;BME280;27576;53.366;-1.498;2023-06-14T01:05:29;100595.66;;;17.57;54.50
41898;BME280;27576;53.366;-1.498;2023-06-14T01:11:05;100612.25;;;17.58;56.37
41898;BME280;27576;53.366;-1.498;2023-06-14T01:13:34;100609.69;;;17.53;56.73
41898;BME280;27576;53.366;-1.498;2023-06-14T01:16:01;100612.38;;;17.47;55.70
41898;BME280;27576;53.366;-1.498;2023-06-14T01:18:28;100608.91;;;17.43;56.15
41898;BME280;27576;53.366;-1.498;2023-06-14T01:20:55;100607.25;;;17.36;56.87
41898;BME280;27576;53.366;-1.498;2023-06-14T01:23:21;100587.38;;;17.22;56.02
41898;BME280;27576;53.366;-1.498;2023-06-14T01:25:48;100602.09;;;17.33;56.86
41898;BME280;27576;53.366;-1.498;2023-06-14T01:28:20;100606.47;;;17.30;57.77
41898;BME280;27576;53.366;-1.498;2023-06-14T01:30:49;100603.91;;;17.24;58.11
41898;BME280;27576;53.366;-1.498;2023-06-14T01:33:26;100594.41;;;17.16;59.33
41898;BME280;27576;53.366;-1.498;2023-06-14T01:35:53;100606.63;;;17.17;59.04
41898;BME280;27576;53.366;-1.498;2023-06-14T01:38:21;100599.69;;;17.13;58.33
41898;BME280;27576;53.366;-1.498;2023-06-14T01:40:48;100606.72;;;17.08;58.36
41898;BME280;27576;53.366;-1.498;2023-06-14T01:43:14;100596.34;;;16.98;58.77
41898;BME280;27576;53.366;-1.498;2023-06-14T01:45:42;100594.66;;;16.92;58.71
41898;BME280;27576;53.366;-1.498;2023-06-14T01:48:08;100599.88;;;16.93;60.56
41898;BME280;27576;53.366;-1.498;2023-06-14T01:50:34;100584.31;;;16.83;60.49
41898;BME280;27576;53.366;-1.498;2023-06-14T01:53:00;100579.13;;;16.74;61.03
41898;BME280;27576;53.366;-1.498;2023-06-14T01:55:25;100601.72;;;16.84;60.96
41898;BME280;27576;53.366;-1.498;2023-06-14T01:57:52;100602.59;;;16.86;62.19
41898;BME280;27576;53.366;-1.498;2023-06-14T02:00:18;100589.59;;;16.75;62.05
41898;BME280;27576;53.366;-1.498;2023-06-14T02:02:44;100594.84;;;16.74;62.96
41898;BME280;27576;53.366;-1.498;2023-06-14T02:05:09;100583.63;;;16.59;62.93
41898;BME280;27576;53.366;-1.498;2023-06-14T02:07:35;100587.09;;;16.60;63.77
41898;BME280;27576;53.366;-1.498;2023-06-14T02:10:01;100574.94;;;16.53;62.21
41898;BME280;27576;53.366;-1.498;2023-06-14T02:12:26;100596.69;;;16.59;63.08
41898;BME280;27576;53.366;-1.498;2023-06-14T02:14:51;100599.31;;;16.58;62.36
41898;BME280;27576;53.366;-1.498;2023-06-14T02:17:17;100564.56;;;16.42;61.90
41898;BME280;27576;53.366;-1.498;2023-06-14T02:19:42;100575.03;;;16.43;62.30
41898;BME280;27576;53.366;-1.498;2023-06-14T02:22:08;100592.38;;;16.54;62.17
41898;BME280;27576;53.366;-1.498;2023-06-14T02:24:33;100581.13;;;16.44;64.26
41898;BME280;27576;53.366;-1.498;2023-06-14T02:26:58;100569.00;;;16.31;63.47
41898;BME280;27576;53.366;-1.498;2023-06-14T02:29:24;100593.31;;;16.45;63.06
41898;BME280;27576;53.366;-1.498;2023-06-14T02:31:49;100587.25;;;16.43;63.20
41898;BME280;27576;53.366;-1.498;2023-06-14T02:34:15;100589.88;;;16.38;64.37
41898;BME280;27576;53.366;-1.498;2023-06-14T02:36:43;100589.09;;;16.32;65.46
41898;BME280;27576;53.366;-1.498;2023-06-14T02:39:09;100594.31;;;16.32;65.64
41898;BME280;27576;53.366;-1.498;2023-06-14T02:41:34;100567.44;;;16.11;65.60
41898;BME280;27576;53.366;-1.498;2023-06-14T02:44:00;100588.22;;;16.27;65.21
41898;BME280;27576;53.366;-1.498;2023-06-14T02:46:25;100581.28;;;16.23;66.17
41898;BME280;27576;53.366;-1.498;2023-06-14T02:48:50;100545.72;;;15.99;66.44
41898;BME280;27576;53.366;-1.498;2023-06-14T02:51:16;100579.63;;;16.12;66.42
41898;BME280;27576;53.366;-1.498;2023-06-14T02:53:41;100564.03;;;16.00;66.65
41898;BME280;27576;53.366;-1.498;2023-06-14T02:56:06;100567.50;;;15.99;66.70
41898;BME280;27576;53.366;-1.498;2023-06-14T02:58:32;100554.53;;;15.87;66.87
41898;BME280;27576;53.366;-1.498;2023-06-14T03:00:58;100588.38;;;16.05;66.83
41898;BME280;27576;53.366;-1.498;2023-06-14T03:03:27;100547.59;;;15.83;66.76
41898;BME280;27576;53.366;-1.498;2023-06-14T03:05:53;100572.78;;;15.93;66.48
41898;BME280;27576;53.366;-1.498;2023-06-14T03:08:20;100583.19;;;16.02;67.08
41898;BME280;27576;53.366;-1.498;2023-06-14T03:10:49;100577.16;;;15.95;67.13
41898;BME280;27576;53.366;-1.498;2023-06-14T03:13:15;100594.50;;;16.04;66.52
41898;BME280;27576;53.366;-1.498;2023-06-14T03:15:46;100584.13;;;15.93;66.90
41898;BME280;27576;53.366;-1.498;2023-06-14T03:18:12;100574.53;;;15.91;68.31
41898;BME280;27576;53.366;-1.498;2023-06-14T03:20:40;100596.28;;;16.01;67.53
41898;BME280;27576;53.366;-1.498;2023-06-14T03:23:06;100583.25;;;15.91;66.10
41898;BME280;27576;53.366;-1.498;2023-06-14T03:25:32;100598.88;;;15.99;66.33
41898;BME280;27576;53.366;-1.498;2023-06-14T03:28:03;100602.41;;;15.97;66.25
41898;BME280;27576;53.366;-1.498;2023-06-14T03:30:30;100572.88;;;15.81;68.26
41898;BME280;27576;53.366;-1.498;2023-06-14T03:32:55;100594.56;;;15.93;68.19
41898;BME280;27576;53.366;-1.498;2023-06-14T03:35:21;100594.56;;;15.93;68.35
41898;BME280;27576;53.366;-1.498;2023-06-14T03:37:47;100595.44;;;15.92;68.97
41898;BME280;27576;53.366;-1.498;2023-06-14T03:40:14;100593.69;;;15.94;69.15
41898;BME280;27576;53.366;-1.498;2023-06-14T03:42:40;100565.06;;;15.75;69.05
41898;BME280;27576;53.366;-1.498;2023-06-14T03:45:07;100595.44;;;15.91;70.64
41898;BME280;27576;53.366;-1.498;2023-06-14T03:47:34;100598.94;;;15.87;69.95
41898;BME280;27576;53.366;-1.498;2023-06-14T03:49:59;100609.44;;;15.85;68.89
41898;BME280;27576;53.366;-1.498;2023-06-14T03:52:26;100603.34;;;15.82;68.97
41898;BME280;27576;53.366;-1.498;2023-06-14T03:54:52;100583.38;;;15.70;69.22
41898;BME280;27576;53.366;-1.498;2023-06-14T03:57:18;100594.69;;;15.72;68.87
41898;BME280;27576;53.366;-1.498;2023-06-14T03:59:43;100597.28;;;15.77;68.31
41898;BME280;27576;53.366;-1.498;2023-06-14T04:02:09;100582.53;;;15.68;70.46
41898;BME280;27576;53.366;-1.498;2023-06-14T04:04:35;100599.84;;;15.84;70.82
41898;BME280;27576;53.366;-1.498;2023-06-14T04:07:00;100597.25;;;15.84;68.96
41898;BME280;27576;53.366;-1.498;2023-06-14T04:09:26;100563.34;;;15.67;69.28
41898;BME280;27576;53.366;-1.498;2023-06-14T04:11:52;100591.16;;;15.84;70.00
41898;BME280;27576;53.366;-1.498;2023-06-14T04:14:19;100571.19;;;15.70;68.32
41898;BME280;27576;53.366;-1.498;2023-06-14T04:16:45;100586.78;;;15.84;68.51
41898;BME280;27576;53.366;-1.498;2023-06-14T04:19:11;100588.53;;;15.84;68.10
41898;BME280;27576;53.366;-1.498;2023-06-14T04:21:36;100584.16;;;15.83;69.14
41898;BME280;27576;53.366;-1.498;2023-06-14T04:24:02;100584.19;;;15.81;67.88
41898;BME280;27576;53.366;-1.498;2023-06-14T04:26:28;100525.13;;;15.46;68.06
41898;BME280;27576;53.366;-1.498;2023-06-14T04:28:55;100586.78;;;15.80;69.27
41898;BME280;27576;53.366;-1.498;2023-06-14T04:31:22;100590.28;;;15.79;67.79
41898;BME280;27576;53.366;-1.498;2023-06-14T04:33:50;100566.88;;;15.60;69.43
41898;BME280;27576;53.366;-1.498;2023-06-14T04:36:18;100598.16;;;15.77;69.34
41898;BME280;27576;53.366;-1.498;2023-06-14T04:38:44;100585.13;;;15.66;68.06
41898;BME280;27576;53.366;-1.498;2023-06-14T04:41:11;100566.88;;;15.56;68.02
41898;BME280;27576;53.366;-1.498;2023-06-14T04:43:37;100591.19;;;15.71;69.58
41898;BME280;27576;53.366;-1.498;2023-06-14T04:46:06;100595.53;;;15.76;68.31
41898;BME280;27576;53.366;-1.498;2023-06-14T04:48:39;100568.59;;;15.58;68.58
41898;BME280;27576;53.366;-1.498;2023-06-14T04:51:07;100578.13;;;15.64;67.52
41898;BME280;27576;53.366;-1.498;2023-06-14T04:53:32;100596.44;;;15.73;69.00
41898;BME280;27576;53.366;-1.498;2023-06-14T04:55:57;100596.41;;;15.75;69.18
41898;BME280;27576;53.366;-1.498;2023-06-14T04:58:23;100570.31;;;15.62;67.85
41898;BME280;27576;53.366;-1.498;2023-06-14T05:00:48;100593.78;;;15.78;68.50
41898;BME280;27576;53.366;-1.498;2023-06-14T05:03:14;100595.56;;;15.71;68.27
41898;BME280;27576;53.366;-1.498;2023-06-14T05:05:40;100592.94;;;15.73;68.91
41898;BME280;27576;53.366;-1.498;2023-06-14T05:08:06;100586.88;;;15.72;70.45
41898;BME280;27576;53.366;-1.498;2023-06-14T05:10:32;100591.16;;;15.82;69.85
41898;BME280;27576;53.366;-1.498;2023-06-14T05:13:00;100596.38;;;15.82;70.09
41898;BME280;27576;53.366;-1.498;2023-06-14T05:15:25;100570.31;;;15.70;70.20
41898;BME280;27576;53.366;-1.498;2023-06-14T05:17:51;100595.50;;;15.85;70.19
41898;BME280;27576;53.366;-1.498;2023-06-14T05:20:21;100577.28;;;15.73;69.51
41898;BME280;27576;53.366;-1.498;2023-06-14T05:22:48;100598.06;;;15.89;70.79
41898;BME280;27576;53.366;-1.498;2023-06-14T05:25:15;100605.03;;;15.92;69.71
41898;BME280;27576;53.366;-1.498;2023-06-14T05:27:40;100603.28;;;15.94;70.13
41898;BME280;27576;53.366;-1.498;2023-06-14T05:30:07;100570.28;;;15.78;70.31
41898;BME280;27576;53.366;-1.498;2023-06-14T05:32:33;100587.66;;;15.85;69.15
41898;BME280;27576;53.366;-1.498;2023-06-14T05:34:59;100592.00;;;15.89;70.33
41898;BME280;27576;53.366;-1.498;2023-06-14T05:37:24;100572.06;;;15.73;69.83
41898;BME280;27576;53.366;-1.498;2023-06-14T05:39:50;100578.09;;;15.79;69.55
41898;BME280;27576;53.366;-1.498;2023-06-14T05:42:15;100611.13;;;15.95;71.03
41898;BME280;27576;53.366;-1.498;2023-06-14T05:44:40;100607.59;;;15.98;71.64
41898;BME280;27576;53.366;-1.498;2023-06-14T05:47:06;100611.94;;;16.02;70.90
41898;BME280;27576;53.366;-1.498;2023-06-14T05:49:31;100604.97;;;16.04;71.97
41898;BME280;27576;53.366;-1.498;2023-06-14T05:51:56;100567.59;;;15.87;72.04
41898;BME280;27576;53.366;-1.498;2023-06-14T05:54:22;100607.53;;;16.10;72.62
41898;BME280;27576;53.366;-1.498;2023-06-14T05:56:47;100606.66;;;16.11;72.25
41898;BME280;27576;53.366;-1.498;2023-06-14T05:59:12;100571.91;;;15.95;71.79
41898;BME280;27576;53.366;-1.498;2023-06-14T06:01:38;100602.25;;;16.15;73.01
41898;BME280;27576;53.366;-1.498;2023-06-14T06:04:05;100609.22;;;16.20;72.22
41898;BME280;27576;53.366;-1.498;2023-06-14T06:06:31;100613.50;;;16.26;72.52
41898;BME280;27576;53.366;-1.498;2023-06-14T06:08:57;100609.13;;;16.30;72.11
41898;BME280;27576;53.366;-1.498;2023-06-14T06:11:23;100586.56;;;16.18;72.24
41898;BME280;27576;53.366;-1.498;2023-06-14T06:13:48;100579.59;;;16.20;72.18
41898;BME280;27576;53.366;-1.498;2023-06-14T06:16:14;100601.25;;;16.34;71.43
41898;BME280;27576;53.366;-1.498;2023-06-14T06:18:40;100604.63;;;16.49;71.03
41898;BME280;27576;53.366;-1.498;2023-06-14T06:21:05;100579.47;;;16.34;70.59
41898;BME280;27576;53.366;-1.498;2023-06-14T06:23:31;100608.88;;;16.60;70.11
41898;BME280;27576;53.366;-1.498;2023-06-14T06:25:56;100580.19;;;16.50;69.94
41898;BME280;27576;53.366;-1.498;2023-06-14T06:28:22;100606.19;;;16.69;70.91
41898;BME280;27576;53.366;-1.498;2023-06-14T06:30:47;100580.06;;;16.65;69.59
41898;BME280;27576;53.366;-1.498;2023-06-14T06:33:12;100625.19;;;16.95;70.58
41898;BME280;27576;53.366;-1.498;2023-06-14T06:35:39;100615.44;;;17.07;69.69
41898;BME280;27576;53.366;-1.498;2023-06-14T06:38:04;100618.81;;;17.22;68.36
41898;BME280;27576;53.366;-1.498;2023-06-14T06:40:30;100613.50;;;17.26;69.25
41898;BME280;27576;53.366;-1.498;2023-06-14T06:42:55;100612.50;;;17.38;67.99
41898;BME280;27576;53.366;-1.498;2023-06-14T06:45:21;100634.13;;;17.54;67.82
41898;BME280;27576;53.366;-1.498;2023-06-14T06:47:48;100606.31;;;17.45;67.33
41898;BME280;27576;53.366;-1.498;2023-06-14T06:50:14;100630.47;;;17.69;67.86
41898;BME280;27576;53.366;-1.498;2023-06-14T06:52:39;100625.09;;;17.81;66.69
41898;BME280;27576;53.366;-1.498;2023-06-14T06:55:05;100601.50;;;17.79;67.32
41898;BME280;27576;53.366;-1.498;2023-06-14T06:57:30;100628.25;;;18.04;66.24
41898;BME280;27576;53.366;-1.498;2023-06-14T06:59:57;100620.31;;;18.09;65.58
41898;BME280;27576;53.366;-1.498;2023-06-14T07:02:22;100596.72;;;18.07;65.20
41898;BME280;27576;53.366;-1.498;2023-06-14T07:04:47;100620.88;;;18.29;65.48
41898;BME280;27576;53.366;-1.498;2023-06-14T07:07:13;100627.78;;;18.35;64.98
41898;BME280;27576;53.366;-1.498;2023-06-14T07:09:38;100627.63;;;18.46;65.68
41898;BME280;27576;53.366;-1.498;2023-06-14T07:12:04;100625.00;;;18.47;64.10
41898;BME280;27576;53.366;-1.498;2023-06-14T07:14:29;100599.69;;;18.42;64.95
41898;BME280;27576;53.366;-1.498;2023-06-14T07:16:55;100616.97;;;18.56;64.71
41898;BME280;27576;53.366;-1.498;2023-06-14T07:19:20;100629.00;;;18.67;65.24
41898;BME280;27576;53.366;-1.498;2023-06-14T07:21:46;100635.06;;;18.75;64.12
41898;BME280;27576;53.366;-1.498;2023-06-14T07:24:11;100606.25;;;18.69;64.06
41898;BME280;27576;53.366;-1.498;2023-06-14T07:26:36;100630.41;;;18.89;63.93
41898;BME280;27576;53.366;-1.498;2023-06-14T07:29:02;100637.25;;;18.99;63.25
41898;BME280;27576;53.366;-1.498;2023-06-14T07:31:27;100639.75;;;19.07;62.55
41898;BME280;27576;53.366;-1.498;2023-06-14T07:33:53;100624.78;;;19.10;62.13
41898;BME280;27576;53.366;-1.498;2023-06-14T07:36:18;100633.34;;;19.22;61.38
41898;BME280;27576;53.366;-1.498;2023-06-14T07:38:44;100616.69;;;19.21;61.49
41898;BME280;27576;53.366;-1.498;2023-06-14T07:41:10;100626.94;;;19.35;61.38
41898;BME280;27576;53.366;-1.498;2023-06-14T07:43:35;100629.38;;;19.44;61.04
41898;BME280;27576;53.366;-1.498;2023-06-14T07:46:01;100610.16;;;19.42;60.94
41898;BME280;27576;53.366;-1.498;2023-06-14T07:48:27;100635.13;;;19.65;60.36
41898;BME280;27576;53.366;-1.498;2023-06-14T07:50:52;100632.31;;;19.74;60.97
41898;BME280;27576;53.366;-1.498;2023-06-14T07:53:17;100625.13;;;19.82;60.58
41898;BME280;27576;53.366;-1.498;2023-06-14T07:55:43;100622.44;;;19.83;60.26
41898;BME280;27576;53.366;-1.498;2023-06-14T07:58:08;100623.94;;;19.95;59.73
41898;BME280;27576;53.366;-1.498;2023-06-14T08:00:34;100629.03;;;20.03;60.32
41898;BME280;27576;53.366;-1.498;2023-06-14T08:03:00;100618.28;;;20.12;59.24
41898;BME280;27576;53.366;-1.498;2023-06-14T08:05:25;100627.66;;;20.24;59.70
41898;BME280;27576;53.366;-1.498;2023-06-14T08:07:51;100614.59;;;20.21;59.74
41898;BME280;27576;53.366;-1.498;2023-06-14T08:10:16;100622.22;;;20.31;59.30
41898;BME280;27576;53.366;-1.498;2023-06-14T08:12:42;100634.22;;;20.43;58.81
41898;BME280;27576;53.366;-1.498;2023-06-14T08:15:08;100639.41;;;20.46;59.25
41898;BME280;27576;53.366;-1.498;2023-06-14T08:17:34;100632.28;;;20.51;59.10
41898;BME280;27576;53.366;-1.498;2023-06-14T08:19:59;100631.19;;;20.62;59.68
41898;BME280;27576;53.366;-1.498;2023-06-14T08:22:25;100629.25;;;20.68;59.46
41898;BME280;27576;53.366;-1.498;2023-06-14T08:24:52;100616.13;;;20.67;59.38
41898;BME280;27576;53.366;-1.498;2023-06-14T08:27:19;100634.94;;;20.87;58.56
41898;BME280;27576;53.366;-1.498;2023-06-14T08:29:44;100629.41;;;20.96;57.94
41898;BME280;27576;53.366;-1.498;2023-06-14T08:32:10;100627.38;;;21.07;57.76
41898;BME280;27576;53.366;-1.498;2023-06-14T08:34:35;100619.25;;;21.15;58.29
41898;BME280;27576;53.366;-1.498;2023-06-14T08:37:01;100613.00;;;21.19;57.93
41898;BME280;27576;53.366;-1.498;2023-06-14T08:39:26;100619.66;;;21.34;57.91
41898;BME280;27576;53.366;-1.498;2023-06-14T08:41:52;100632.50;;;21.45;56.29
41898;BME280;27576;53.366;-1.498;2023-06-14T08:44:17;100618.28;;;21.50;56.31
41898;BME280;27576;53.366;-1.498;2023-06-14T08:46:43;100625.69;;;21.67;57.15
41898;BME280;27576;53.366;-1.498;2023-06-14T08:49:11;100621.00;;;21.77;56.45
41898;BME280;27576;53.366;-1.498;2023-06-14T08:51:38;100609.56;;;21.78;55.38
41898;BME280;27576;53.366;-1.498;2023-06-14T08:54:06;100593.63;;;21.81;55.26
41898;BME280;27576;53.366;-1.498;2023-06-14T08:56:32;100614.22;;;21.98;55.45
41898;BME280;27576;53.366;-1.498;2023-06-14T08:58:59;100601.81;;;22.01;54.41
41898;BME280;27576;53.366;-1.498;2023-06-14T09:01:30;100618.84;;;22.19;54.80
41898;BME280;27576;53.366;-1.498;2023-06-14T09:03:56;100621.22;;;22.28;55.16
41898;BME280;27576;53.366;-1.498;2023-06-14T09:06:22;100603.00;;;22.21;53.77
41898;BME280;27576;53.366;-1.498;2023-06-14T09:08:48;100617.56;;;22.33;53.72
41898;BME280;27576;53.366;-1.498;2023-06-14T09:11:16;100588.78;;;22.25;53.64
41898;BME280;27576;53.366;-1.498;2023-06-14T09:13:43;100616.09;;;22.50;53.57
41898;BME280;27576;53.366;-1.498;2023-06-14T09:16:09;100582.09;;;22.40;53.76
41898;BME280;27576;53.366;-1.498;2023-06-14T09:21:01;100591.63;;;22.70;52.81
41898;BME280;27576;53.366;-1.498;2023-06-14T09:23:26;100602.50;;;22.88;53.04
41898;BME280;27576;53.366;-1.498;2023-06-14T09:25:52;100611.00;;;22.97;53.65
41898;BME280;27576;53.366;-1.498;2023-06-14T09:28:17;100586.00;;;23.06;53.18
41898;BME280;27576;53.366;-1.498;2023-06-14T09:30:42;100608.88;;;23.32;52.16
41898;BME280;27576;53.366;-1.498;2023-06-14T09:33:08;100612.16;;;23.39;52.19
41898;BME280;27576;53.366;-1.498;2023-06-14T09:35:33;100589.03;;;23.44;51.97
41898;BME280;27576;53.366;-1.498;2023-06-14T09:37:59;100588.75;;;23.51;51.50
41898;BME280;27576;53.366;-1.498;2023-06-14T09:40:25;100613.56;;;23.72;51.39
41898;BME280;27576;53.366;-1.498;2023-06-14T09:42:52;100621.09;;;23.83;50.91
41898;BME280;27576;53.366;-1.498;2023-06-14T09:45:17;100621.66;;;23.91;49.50
41898;BME280;27576;53.366;-1.498;2023-06-14T09:47:48;100620.31;;;24.03;50.35
41898;BME280;27576;53.366;-1.498;2023-06-14T09:50:14;100593.59;;;24.09;49.97
41898;BME280;27576;53.366;-1.498;2023-06-14T09:52:41;100612.09;;;24.31;48.09
41898;BME280;27576;53.366;-1.498;2023-06-14T09:55:12;100612.34;;;24.48;47.80
41898;BME280;27576;53.366;-1.498;2023-06-14T09:57:41;100583.50;;;24.41;47.05
41898;BME280;27576;53.366;-1.498;2023-06-14T10:00:09;100609.81;;;24.66;46.95
41898;BME280;27576;53.366;-1.498;2023-06-14T10:02:37;100609.56;;;24.72;45.86
41898;BME280;27576;53.366;-1.498;2023-06-14T10:07:35;100610.25;;;24.55;43.95
41898;BME280;27576;53.366;-1.498;2023-06-14T10:10:04;100612.34;;;24.69;44.44
41898;BME280;27576;53.366;-1.498;2023-06-14T10:12:31;100614.69;;;24.77;42.99
41898;BME280;27576;53.366;-1.498;2023-06-14T10:14:56;100614.06;;;24.90;43.83
41898;BME280;27576;53.366;-1.498;2023-06-14T10:22:50;100604.31;;;25.32;42.17
41898;BME280;27576;53.366;-1.498;2023-06-14T10:25:29;100601.38;;;25.38;42.50
41898;BME280;27576;53.366;-1.498;2023-06-14T10:30:38;100597.81;;;25.58;40.64
41898;BME280;27576;53.366;-1.498;2023-06-14T10:33:05;100611.06;;;25.58;39.88
41898;BME280;27576;53.366;-1.498;2023-06-14T10:35:35;100599.47;;;25.60;38.97
41898;BME280;27576;53.366;-1.498;2023-06-14T10:38:11;100602.84;;;25.64;39.26
41898;BME280;27576;53.366;-1.498;2023-06-14T10:40:39;100585.53;;;25.74;39.41
41898;BME280;27576;53.366;-1.498;2023-06-14T10:43:23;100607.22;;;25.65;38.07
41898;BME280;27576;53.366;-1.498;2023-06-14T10:46:14;100605.19;;;25.70;39.13
41898;BME280;27576;53.366;-1.498;2023-06-14T10:48:44;100618.94;;;25.80;38.79
41898;BME280;27576;53.366;-1.498;2023-06-14T10:51:17;100594.56;;;25.90;38.03
41898;BME280;27576;53.366;-1.498;2023-06-14T10:53:46;100602.78;;;26.03;37.82
41898;BME280;27576;53.366;-1.498;2023-06-14T10:56:31;100595.78;;;26.19;37.47
41898;BME280;27576;53.366;-1.498;2023-06-14T10:58:57;100595.69;;;26.21;37.02
41898;BME280;27576;53.366;-1.498;2023-06-14T11:01:40;100597.13;;;26.28;38.04
41898;BME280;27576;53.366;-1.498;2023-06-14T11:04:10;100593.56;;;26.29;34.87
41898;BME280;27576;53.366;-1.498;2023-06-14T11:12:01;100572.41;;;26.09;35.31
41898;BME280;27576;53.366;-1.498;2023-06-14T11:14:30;100591.56;;;26.15;36.54
41898;BME280;27576;53.366;-1.498;2023-06-14T11:16:56;100573.34;;;26.08;36.24
41898;BME280;27576;53.366;-1.498;2023-06-14T11:19:21;100583.47;;;26.36;37.92
41898;BME280;27576;53.366;-1.498;2023-06-14T11:21:48;100590.53;;;26.54;36.01
41898;BME280;27576;53.366;-1.498;2023-06-14T11:24:13;100584.38;;;26.71;37.12
41898;BME280;27576;53.366;-1.498;2023-06-14T11:26:40;100589.03;;;26.83;36.61
41898;BME280;27576;53.366;-1.498;2023-06-14T11:29:05;100587.88;;;26.89;36.16
41898;BME280;27576;53.366;-1.498;2023-06-14T11:31:31;100573.72;;;26.88;36.77
41898;BME280;27576;53.366;-1.498;2023-06-14T11:33:58;100564.81;;;26.89;36.62
41898;BME280;27576;53.366;-1.498;2023-06-14T11:36:31;100583.22;;;27.10;36.10
41898;BME280;27576;53.366;-1.498;2023-06-14T11:39:04;100576.53;;;27.20;35.52
41898;BME280;27576;53.366;-1.498;2023-06-14T11:44:03;100564.00;;;27.38;36.45
41898;BME280;27576;53.366;-1.498;2023-06-14T11:46:29;100569.84;;;27.45;36.41
41898;BME280;27576;53.366;-1.498;2023-06-14T11:48:54;100571.72;;;27.42;35.18
41898;BME280;27576;53.366;-1.498;2023-06-14T11:51:19;100559.28;;;27.43;36.07
41898;BME280;27576;53.366;-1.498;2023-06-14T11:53:46;100549.69;;;27.40;34.83
41898;BME280;27576;53.366;-1.498;2023-06-14T11:56:11;100577.06;;;27.58;35.60
41898;BME280;27576;53.366;-1.498;2023-06-14T11:58:37;100575.47;;;27.56;34.08
41898;BME280;27576;53.366;-1.498;2023-06-14T12:01:03;100573.22;;;27.48;33.97
41898;BME280;27576;53.366;-1.498;2023-06-14T12:03:28;100561.88;;;27.45;34.60
41898;BME280;27576;53.366;-1.498;2023-06-14T12:06:07;100575.09;;;27.46;35.96
41898;BME280;27576;53.366;-1.498;2023-06-14T12:08:34;100579.22;;;27.52;36.05
41898;BME280;27576;53.366;-1.498;2023-06-14T12:11:07;100565.28;;;27.47;34.43
41898;BME280;27576;53.366;-1.498;2023-06-14T12:13:38;100568.16;;;27.44;35.25
41898;BME280;27576;53.366;-1.498;2023-06-14T12:16:07;100558.50;;;27.41;34.39
41898;BME280;27576;53.366;-1.498;2023-06-14T12:18:34;100575.19;;;27.45;36.01
41898;BME280;27576;53.366;-1.498;2023-06-14T12:21:00;100568.47;;;27.37;34.88
41898;BME280;27576;53.366;-1.498;2023-06-14T12:23:47;100572.09;;;27.36;34.08
41898;BME280;27576;53.366;-1.498;2023-06-14T12:26:14;100576.34;;;27.39;34.90
41898;BME280;27576;53.366;-1.498;2023-06-14T12:28:41;100552.84;;;27.31;35.04
41898;BME280;27576;53.366;-1.498;2023-06-14T12:31:07;100575.88;;;27.48;33.83
41898;BME280;27576;53.366;-1.498;2023-06-14T12:33:33;100561.88;;;27.45;35.43
41898;BME280;27576;53.366;-1.498;2023-06-14T12:35:59;100563.69;;;27.60;34.02
41898;BME280;27576;53.366;-1.498;2023-06-14T12:38:24;100567.81;;;27.65;34.09
41898;BME280;27576;53.366;-1.498;2023-06-14T12:40:50;100554.59;;;27.64;33.75
41898;BME280;27576;53.366;-1.498;2023-06-14T12:43:15;100558.88;;;27.66;34.06
41898;BME280;27576;53.366;-1.498;2023-06-14T12:45:40;100559.06;;;27.63;33.74
41898;BME280;27576;53.366;-1.498;2023-06-14T12:48:06;100577.03;;;27.76;34.05
41898;BME280;27576;53.366;-1.498;2023-06-14T12:50:33;100584.75;;;27.80;33.14
41898;BME280;27576;53.366;-1.498;2023-06-14T12:52:59;100578.22;;;27.86;33.65
41898;BME280;27576;53.366;-1.498;2023-06-14T12:55:24;100579.53;;;27.95;33.10
41898;BME280;27576;53.366;-1.498;2023-06-14T12:57:49;100593.75;;;28.25;33.13
41898;BME280;27576;53.366;-1.498;2023-06-14T13:00:17;100584.03;;;28.70;32.18
41898;BME280;27576;53.366;-1.498;2023-06-14T13:02:43;100579.16;;;29.21;31.36